Monday, September 26, 2016, 11:34 AM EDT

KPTW, Pottstown Limerick Airport

Location: Royersford, PA, United States Lat: 40.233
Local Time: 11:34 AM EDT (15:34 GMT) Lon: -75.55
Time Zone: US/Eastern Elev: 291 ft

Show me the last for .
Show Decoded

2016-09-26 10:54 METAR KPTW 261454Z AUTO VRB04KT 10SM BKN050 17/11 A3018 RMK AO2 SLP215 T01720106
                 57008 =
2016-09-26 09:54 METAR KPTW 261354Z AUTO 00000KT 10SM OVC046 15/09 A3018 RMK AO2 SLP219 T01500094
                 =
2016-09-26 08:54 METAR KPTW 261254Z AUTO 09003KT 10SM CLR 12/08 A3019 RMK AO2 SLP221 T01170078 =
2016-09-26 07:54 METAR KPTW 261154Z AUTO 00000KT 10SM CLR 09/06 A3020 RMK AO2 SLP224 T00940061
                 10094 20061 51004 =
2016-09-26 06:54 METAR KPTW 261054Z AUTO 00000KT 10SM CLR 07/06 A3020 RMK AO2 SLP224 T00670056 =
2016-09-26 05:54 METAR KPTW 260954Z AUTO 00000KT 10SM CLR 06/06 A3019 RMK AO2 SLP220 T00610056 =
2016-09-26 04:54 METAR KPTW 260854Z AUTO 00000KT 10SM CLR 07/06 A3019 RMK AO2 SLP219 T00720061
                 55003 =
2016-09-26 03:54 METAR KPTW 260754Z AUTO 00000KT 10SM CLR 07/06 A3018 RMK AO2 SLP218 T00670061 =
2016-09-26 02:54 METAR KPTW 260654Z AUTO 00000KT 10SM CLR 07/06 A3019 RMK AO2 SLP220 T00720061 =
2016-09-26 01:54 METAR KPTW 260554Z AUTO 00000KT 10SM CLR 08/06 A3019 RMK AO2 SLP222 T00780061
                 10139 20078 58003 =
2016-09-26 00:54 METAR KPTW 260454Z AUTO 00000KT 10SM CLR 09/07 A3021 RMK AO2 SLP227 T00940072
                 402170067 =
2016-09-25 23:54 METAR KPTW 260354Z AUTO 00000KT 10SM CLR 09/07 A3020 RMK AO2 SLP225 T00940072 =
2016-09-25 22:54 METAR KPTW 260254Z AUTO 00000KT 10SM CLR 09/07 A3020 RMK AO2 SLP225 T00940072
                 51009 =
2016-09-25 21:54 METAR KPTW 260154Z AUTO 00000KT 10SM CLR 11/07 A3020 RMK AO2 SLP224 T01110072 =
2016-09-25 20:54 METAR KPTW 260054Z AUTO 00000KT 10SM CLR 13/07 A3018 RMK AO2 SLP218 T01280072 =
2016-09-25 19:54 METAR KPTW 252354Z AUTO 00000KT 10SM CLR 13/08 A3018 RMK AO2 SLP216 T01330083
                 10217 20133 53011 =
2016-09-25 18:54 METAR KPTW 252254Z AUTO 00000KT 10SM CLR 17/07 A3016 RMK AO2 SLP211 T01670067 =
2016-09-25 17:54 METAR KPTW 252154Z AUTO 31005KT 10SM CLR 21/05 A3016 RMK AO2 SLP209 T02060050 =
2016-09-25 16:54 METAR KPTW 252054Z AUTO 33005KT 10SM CLR 21/05 A3014 RMK AO2 SLP205 T02110050
                 56016 =
2016-09-25 15:54 METAR KPTW 251954Z AUTO 35006KT 10SM CLR 21/04 A3015 RMK AO2 SLP208 T02110044 =
2016-09-25 14:54 METAR KPTW 251854Z AUTO 32008KT 10SM CLR 21/05 A3017 RMK AO2 SLP214 T02110050 =
2016-09-25 13:54 METAR KPTW 251754Z AUTO VRB05KT 10SM CLR 21/06 A3019 RMK AO2 SLP220 T02110056
                 10211 20100 58017 =
2016-09-25 12:54 METAR KPTW 251654Z AUTO 36007KT 10SM CLR 19/06 A3021 RMK AO2 SLP229 T01940056 =
2016-09-25 11:54 METAR KPTW 251554Z AUTO 01008KT 10SM CLR 19/06 A3023 RMK AO2 SLP235 T01890056 =

Support USWX by starting your Amazon purchase here.